CYWG/YWG METAR and TAF weather

Enter ICAO airport designator
Station Type Date Time Source
CYWG METAR 2020/12/06 01:00 UTC NOAA

CYWG 060100Z 23005KT 15SM BKN170 01/M02 A3011 RMK AC6 SLP213


Station Type Date Time Source
CYWG Decoded METAR 2020/12/06 01:00 UTC NOAA

Winnipeg Int. Airportman., Canada (CYWG) 49-54N 097-14W 239M
Dec 05, 2020 - 08:00 PM EST / 2020.12.06 0100 UTC
Wind: from the SW (230 degrees) at 6 MPH (5 KT):0
Visibility: 15 mile(s):0
Sky conditions: mostly cloudy
Temperature: 33 F (1 C)
Windchill: 26 F (-3 C):1
Dew Point: 28 F (-2 C)
Relative Humidity: 80%
Pressure (altimeter): 30.11 in. Hg (1019 hPa)
ob: CYWG 060100Z 23005KT 15SM BKN170 01/M02 A3011 RMK AC6 SLP213
cycle: 1

Station Type Date Time Source
CYWG TAF 2020/12/05 18:42 UTC NOAA

TAF CYWG 051738Z 0518/0618 29008KT P6SM FEW020 BKN080
FM051900 29008KT P6SM SKC
FM060400 22006KT P6SM SCT100
FM061000 18006KT P6SM SKC PROB30 0610/0616 1/2SM FZFG BKN002
FM061600 12005KT P6SM FEW006
RMK NXT FCST BY 060000Z

Example: see airport list